sensor_id;sensor_type;location;lat;lon;timestamp;P1;durP1;ratioP1;P2;durP2;ratioP2
13311;SDS011;34033;48.672;9.376;2022-08-03T00:00:42;3.10;;;2.40;;
13311;SDS011;34033;48.672;9.376;2022-08-03T00:03:08;4.37;;;2.43;;
13311;SDS011;34033;48.672;9.376;2022-08-03T00:05:33;2.50;;;2.30;;
13311;SDS011;34033;48.672;9.376;2022-08-03T00:07:59;2.40;;;2.20;;
13311;SDS011;34033;48.672;9.376;2022-08-03T00:10:24;3.37;;;2.57;;
13311;SDS011;34033;48.672;9.376;2022-08-03T00:12:50;2.20;;;2.10;;
13311;SDS011;34033;48.672;9.376;2022-08-03T00:15:16;2.37;;;2.17;;
13311;SDS011;34033;48.672;9.376;2022-08-03T00:17:42;2.60;;;2.40;;
13311;SDS011;34033;48.672;9.376;2022-08-03T00:20:07;2.37;;;2.20;;
13311;SDS011;34033;48.672;9.376;2022-08-03T00:22:34;2.40;;;2.20;;
13311;SDS011;34033;48.672;9.376;2022-08-03T00:24:59;2.50;;;2.30;;
13311;SDS011;34033;48.672;9.376;2022-08-03T00:27:25;2.40;;;2.20;;
13311;SDS011;34033;48.672;9.376;2022-08-03T00:29:50;2.20;;;2.10;;
13311;SDS011;34033;48.672;9.376;2022-08-03T00:32:15;3.67;;;2.30;;
13311;SDS011;34033;48.672;9.376;2022-08-03T00:34:41;2.50;;;2.40;;
13311;SDS011;34033;48.672;9.376;2022-08-03T00:37:06;3.77;;;2.67;;
13311;SDS011;34033;48.672;9.376;2022-08-03T00:39:31;2.60;;;2.40;;
13311;SDS011;34033;48.672;9.376;2022-08-03T00:42:00;7.30;;;2.57;;
13311;SDS011;34033;48.672;9.376;2022-08-03T00:44:26;4.43;;;2.77;;
13311;SDS011;34033;48.672;9.376;2022-08-03T00:46:51;3.03;;;2.70;;
13311;SDS011;34033;48.672;9.376;2022-08-03T00:49:17;2.90;;;2.70;;
13311;SDS011;34033;48.672;9.376;2022-08-03T00:51:42;3.10;;;2.37;;
13311;SDS011;34033;48.672;9.376;2022-08-03T00:54:08;4.93;;;2.57;;
13311;SDS011;34033;48.672;9.376;2022-08-03T00:56:34;2.50;;;2.23;;
13311;SDS011;34033;48.672;9.376;2022-08-03T00:59:01;3.17;;;2.60;;
13311;SDS011;34033;48.672;9.376;2022-08-03T01:01:27;2.50;;;2.30;;
13311;SDS011;34033;48.672;9.376;2022-08-03T01:03:52;2.60;;;2.23;;
13311;SDS011;34033;48.672;9.376;2022-08-03T01:06:19;2.80;;;2.50;;
13311;SDS011;34033;48.672;9.376;2022-08-03T01:09:00;2.03;;;1.93;;
13311;SDS011;34033;48.672;9.376;2022-08-03T01:11:40;2.10;;;2.00;;
13311;SDS011;34033;48.672;9.376;2022-08-03T01:14:17;2.20;;;2.10;;
13311;SDS011;34033;48.672;9.376;2022-08-03T01:25:05;2.50;;;2.30;;
13311;SDS011;34033;48.672;9.376;2022-08-03T01:30:49;2.20;;;2.00;;
13311;SDS011;34033;48.672;9.376;2022-08-03T01:33:24;3.33;;;2.30;;
13311;SDS011;34033;48.672;9.376;2022-08-03T01:35:59;2.10;;;2.00;;
13311;SDS011;34033;48.672;9.376;2022-08-03T01:38:33;1.93;;;1.83;;
13311;SDS011;34033;48.672;9.376;2022-08-03T01:41:04;2.00;;;1.90;;
13311;SDS011;34033;48.672;9.376;2022-08-03T01:43:34;2.20;;;2.00;;
13311;SDS011;34033;48.672;9.376;2022-08-03T01:46:03;1.93;;;1.83;;
13311;SDS011;34033;48.672;9.376;2022-08-03T01:48:31;2.07;;;1.97;;
13311;SDS011;34033;48.672;9.376;2022-08-03T01:50:59;1.80;;;1.73;;
13311;SDS011;34033;48.672;9.376;2022-08-03T01:53:24;2.33;;;2.23;;
13311;SDS011;34033;48.672;9.376;2022-08-03T01:55:52;2.10;;;2.00;;
13311;SDS011;34033;48.672;9.376;2022-08-03T01:58:19;2.27;;;2.07;;
13311;SDS011;34033;48.672;9.376;2022-08-03T02:00:48;2.90;;;2.00;;
13311;SDS011;34033;48.672;9.376;2022-08-03T02:03:15;1.97;;;1.87;;
13311;SDS011;34033;48.672;9.376;2022-08-03T02:05:42;2.50;;;2.30;;
13311;SDS011;34033;48.672;9.376;2022-08-03T02:08:11;2.20;;;2.00;;
13311;SDS011;34033;48.672;9.376;2022-08-03T02:10:38;2.37;;;2.17;;
13311;SDS011;34033;48.672;9.376;2022-08-03T02:13:06;2.30;;;2.20;;
13311;SDS011;34033;48.672;9.376;2022-08-03T02:15:34;2.10;;;1.97;;
13311;SDS011;34033;48.672;9.376;2022-08-03T02:18:02;2.07;;;1.97;;
13311;SDS011;34033;48.672;9.376;2022-08-03T02:20:30;2.03;;;1.93;;
13311;SDS011;34033;48.672;9.376;2022-08-03T02:22:57;4.80;;;2.10;;
13311;SDS011;34033;48.672;9.376;2022-08-03T02:25:23;2.00;;;1.90;;
13311;SDS011;34033;48.672;9.376;2022-08-03T02:27:54;2.33;;;2.23;;
13311;SDS011;34033;48.672;9.376;2022-08-03T02:30:22;2.20;;;2.10;;
13311;SDS011;34033;48.672;9.376;2022-08-03T02:32:55;2.13;;;1.90;;
13311;SDS011;34033;48.672;9.376;2022-08-03T02:35:23;1.80;;;1.70;;
13311;SDS011;34033;48.672;9.376;2022-08-03T02:37:51;5.50;;;1.83;;
13311;SDS011;34033;48.672;9.376;2022-08-03T02:40:20;2.03;;;1.93;;
13311;SDS011;34033;48.672;9.376;2022-08-03T02:42:48;2.30;;;2.20;;
13311;SDS011;34033;48.672;9.376;2022-08-03T02:45:17;2.30;;;2.20;;
13311;SDS011;34033;48.672;9.376;2022-08-03T02:47:45;2.40;;;2.20;;
13311;SDS011;34033;48.672;9.376;2022-08-03T02:50:13;2.30;;;2.20;;
13311;SDS011;34033;48.672;9.376;2022-08-03T02:52:41;2.00;;;1.90;;
13311;SDS011;34033;48.672;9.376;2022-08-03T02:55:09;2.33;;;2.23;;
13311;SDS011;34033;48.672;9.376;2022-08-03T02:57:36;3.27;;;2.10;;
13311;SDS011;34033;48.672;9.376;2022-08-03T03:00:03;2.27;;;2.10;;
13311;SDS011;34033;48.672;9.376;2022-08-03T03:02:29;3.33;;;3.03;;
13311;SDS011;34033;48.672;9.376;2022-08-03T03:04:55;2.40;;;2.20;;
13311;SDS011;34033;48.672;9.376;2022-08-03T03:07:23;2.30;;;2.20;;
13311;SDS011;34033;48.672;9.376;2022-08-03T03:09:49;2.10;;;2.00;;
13311;SDS011;34033;48.672;9.376;2022-08-03T03:12:15;2.23;;;2.13;;
13311;SDS011;34033;48.672;9.376;2022-08-03T03:14:42;2.00;;;1.90;;
13311;SDS011;34033;48.672;9.376;2022-08-03T03:17:10;2.47;;;2.27;;
13311;SDS011;34033;48.672;9.376;2022-08-03T03:19:37;2.50;;;2.30;;
13311;SDS011;34033;48.672;9.376;2022-08-03T03:22:04;2.40;;;2.23;;
13311;SDS011;34033;48.672;9.376;2022-08-03T03:24:32;2.30;;;2.20;;
13311;SDS011;34033;48.672;9.376;2022-08-03T03:26:59;2.10;;;2.00;;
13311;SDS011;34033;48.672;9.376;2022-08-03T03:29:25;2.37;;;2.13;;
13311;SDS011;34033;48.672;9.376;2022-08-03T03:31:52;2.13;;;2.03;;
13311;SDS011;34033;48.672;9.376;2022-08-03T03:34:17;2.27;;;2.17;;
13311;SDS011;34033;48.672;9.376;2022-08-03T03:36:43;2.07;;;1.97;;
13311;SDS011;34033;48.672;9.376;2022-08-03T03:39:08;2.53;;;2.33;;
13311;SDS011;34033;48.672;9.376;2022-08-03T03:41:35;2.30;;;2.20;;
13311;SDS011;34033;48.672;9.376;2022-08-03T03:44:00;2.30;;;2.20;;
13311;SDS011;34033;48.672;9.376;2022-08-03T03:46:26;2.57;;;2.03;;
13311;SDS011;34033;48.672;9.376;2022-08-03T03:48:51;2.20;;;2.10;;
13311;SDS011;34033;48.672;9.376;2022-08-03T03:51:17;2.17;;;2.07;;
13311;SDS011;34033;48.672;9.376;2022-08-03T03:53:55;2.33;;;2.20;;
13311;SDS011;34033;48.672;9.376;2022-08-03T03:56:25;2.50;;;2.30;;
13311;SDS011;34033;48.672;9.376;2022-08-03T03:58:50;2.30;;;2.17;;
13311;SDS011;34033;48.672;9.376;2022-08-03T04:01:16;3.20;;;2.47;;
13311;SDS011;34033;48.672;9.376;2022-08-03T04:03:42;2.63;;;2.30;;
13311;SDS011;34033;48.672;9.376;2022-08-03T04:06:07;2.70;;;2.50;;
13311;SDS011;34033;48.672;9.376;2022-08-03T04:08:51;3.10;;;2.50;;
13311;SDS011;34033;48.672;9.376;2022-08-03T04:11:37;2.30;;;2.20;;
13311;SDS011;34033;48.672;9.376;2022-08-03T04:14:07;2.87;;;2.37;;
13311;SDS011;34033;48.672;9.376;2022-08-03T04:16:40;2.63;;;2.50;;
13311;SDS011;34033;48.672;9.376;2022-08-03T04:20:09;2.70;;;2.50;;
13311;SDS011;34033;48.672;9.376;2022-08-03T04:22:09;2.23;;;2.13;;
13311;SDS011;34033;48.672;9.376;2022-08-03T04:24:45;3.50;;;2.27;;
13311;SDS011;34033;48.672;9.376;2022-08-03T04:27:13;2.60;;;2.40;;
13311;SDS011;34033;48.672;9.376;2022-08-03T04:29:41;2.43;;;2.30;;
13311;SDS011;34033;48.672;9.376;2022-08-03T04:32:09;3.23;;;2.83;;
13311;SDS011;34033;48.672;9.376;2022-08-03T04:34:35;3.77;;;3.10;;
13311;SDS011;34033;48.672;9.376;2022-08-03T04:37:02;2.80;;;2.50;;
13311;SDS011;34033;48.672;9.376;2022-08-03T04:39:33;2.50;;;2.30;;
13311;SDS011;34033;48.672;9.376;2022-08-03T04:42:03;4.10;;;2.47;;
13311;SDS011;34033;48.672;9.376;2022-08-03T04:44:33;5.17;;;2.80;;
13311;SDS011;34033;48.672;9.376;2022-08-03T04:47:01;8.13;;;2.90;;
13311;SDS011;34033;48.672;9.376;2022-08-03T04:49:27;2.60;;;2.40;;
13311;SDS011;34033;48.672;9.376;2022-08-03T04:51:54;5.13;;;2.60;;
13311;SDS011;34033;48.672;9.376;2022-08-03T04:54:19;3.70;;;2.77;;
13311;SDS011;34033;48.672;9.376;2022-08-03T04:56:45;3.30;;;2.77;;
13311;SDS011;34033;48.672;9.376;2022-08-03T04:59:11;4.07;;;2.50;;
13311;SDS011;34033;48.672;9.376;2022-08-03T05:01:38;4.87;;;2.80;;
13311;SDS011;34033;48.672;9.376;2022-08-03T05:04:04;4.97;;;2.83;;
13311;SDS011;34033;48.672;9.376;2022-08-03T05:06:30;3.33;;;2.97;;
13311;SDS011;34033;48.672;9.376;2022-08-03T05:08:55;3.33;;;2.70;;
13311;SDS011;34033;48.672;9.376;2022-08-03T05:11:21;3.03;;;2.60;;
13311;SDS011;34033;48.672;9.376;2022-08-03T05:13:46;3.23;;;2.80;;
13311;SDS011;34033;48.672;9.376;2022-08-03T05:16:12;4.53;;;3.17;;
13311;SDS011;34033;48.672;9.376;2022-08-03T05:18:39;2.87;;;2.67;;
13311;SDS011;34033;48.672;9.376;2022-08-03T05:21:08;4.53;;;2.87;;
13311;SDS011;34033;48.672;9.376;2022-08-03T05:23:34;2.70;;;2.50;;
13311;SDS011;34033;48.672;9.376;2022-08-03T05:26:00;17.20;;;2.73;;
13311;SDS011;34033;48.672;9.376;2022-08-03T05:28:26;3.30;;;2.80;;
13311;SDS011;34033;48.672;9.376;2022-08-03T05:30:51;5.63;;;2.50;;
13311;SDS011;34033;48.672;9.376;2022-08-03T05:33:16;3.40;;;3.03;;
13311;SDS011;34033;48.672;9.376;2022-08-03T05:35:42;3.40;;;2.57;;
13311;SDS011;34033;48.672;9.376;2022-08-03T05:38:07;4.13;;;2.90;;
13311;SDS011;34033;48.672;9.376;2022-08-03T05:40:33;3.33;;;3.10;;
13311;SDS011;34033;48.672;9.376;2022-08-03T05:42:59;3.80;;;2.80;;
13311;SDS011;34033;48.672;9.376;2022-08-03T05:45:25;5.67;;;3.23;;
13311;SDS011;34033;48.672;9.376;2022-08-03T05:47:51;3.13;;;2.93;;
13311;SDS011;34033;48.672;9.376;2022-08-03T05:50:17;4.90;;;3.40;;
13311;SDS011;34033;48.672;9.376;2022-08-03T05:52:45;6.23;;;3.30;;
13311;SDS011;34033;48.672;9.376;2022-08-03T05:55:11;6.50;;;3.33;;
13311;SDS011;34033;48.672;9.376;2022-08-03T05:57:37;3.03;;;2.80;;
13311;SDS011;34033;48.672;9.376;2022-08-03T06:00:04;3.47;;;2.80;;
13311;SDS011;34033;48.672;9.376;2022-08-03T06:02:31;4.87;;;2.73;;
13311;SDS011;34033;48.672;9.376;2022-08-03T06:04:56;3.80;;;2.90;;
13311;SDS011;34033;48.672;9.376;2022-08-03T06:07:22;3.20;;;3.00;;
13311;SDS011;34033;48.672;9.376;2022-08-03T06:09:47;2.73;;;2.53;;
13311;SDS011;34033;48.672;9.376;2022-08-03T06:12:13;3.13;;;2.83;;
13311;SDS011;34033;48.672;9.376;2022-08-03T06:14:38;4.53;;;3.20;;
13311;SDS011;34033;48.672;9.376;2022-08-03T06:17:03;5.50;;;3.40;;
13311;SDS011;34033;48.672;9.376;2022-08-03T06:19:29;3.10;;;2.70;;
13311;SDS011;34033;48.672;9.376;2022-08-03T06:21:54;3.23;;;2.93;;
13311;SDS011;34033;48.672;9.376;2022-08-03T06:24:19;4.40;;;3.33;;
13311;SDS011;34033;48.672;9.376;2022-08-03T06:26:45;3.10;;;2.80;;
13311;SDS011;34033;48.672;9.376;2022-08-03T06:29:10;6.37;;;2.80;;
13311;SDS011;34033;48.672;9.376;2022-08-03T06:31:35;3.30;;;2.90;;
13311;SDS011;34033;48.672;9.376;2022-08-03T06:34:02;5.23;;;3.30;;
13311;SDS011;34033;48.672;9.376;2022-08-03T06:36:28;5.53;;;3.13;;
13311;SDS011;34033;48.672;9.376;2022-08-03T06:38:55;5.30;;;2.80;;
13311;SDS011;34033;48.672;9.376;2022-08-03T06:41:22;4.13;;;3.03;;
13311;SDS011;34033;48.672;9.376;2022-08-03T06:43:47;4.30;;;3.00;;
13311;SDS011;34033;48.672;9.376;2022-08-03T06:46:13;4.67;;;2.80;;
13311;SDS011;34033;48.672;9.376;2022-08-03T06:48:38;3.30;;;3.00;;
13311;SDS011;34033;48.672;9.376;2022-08-03T06:51:03;3.50;;;3.20;;
13311;SDS011;34033;48.672;9.376;2022-08-03T06:53:29;4.77;;;2.77;;
13311;SDS011;34033;48.672;9.376;2022-08-03T06:55:54;3.47;;;3.00;;
13311;SDS011;34033;48.672;9.376;2022-08-03T06:58:19;3.83;;;2.90;;
13311;SDS011;34033;48.672;9.376;2022-08-03T07:00:45;5.47;;;3.20;;
13311;SDS011;34033;48.672;9.376;2022-08-03T07:03:10;3.20;;;2.90;;
13311;SDS011;34033;48.672;9.376;2022-08-03T07:05:35;3.03;;;2.83;;
13311;SDS011;34033;48.672;9.376;2022-08-03T07:08:01;2.90;;;2.70;;
13311;SDS011;34033;48.672;9.376;2022-08-03T07:10:27;2.77;;;2.57;;
13311;SDS011;34033;48.672;9.376;2022-08-03T07:12:52;2.87;;;2.67;;
13311;SDS011;34033;48.672;9.376;2022-08-03T07:15:18;2.60;;;2.40;;
13311;SDS011;34033;48.672;9.376;2022-08-03T07:17:44;4.67;;;3.07;;
13311;SDS011;34033;48.672;9.376;2022-08-03T07:20:09;3.60;;;3.30;;
13311;SDS011;34033;48.672;9.376;2022-08-03T07:22:37;2.97;;;2.77;;
13311;SDS011;34033;48.672;9.376;2022-08-03T07:25:02;3.60;;;3.23;;
13311;SDS011;34033;48.672;9.376;2022-08-03T07:27:28;2.93;;;2.50;;
13311;SDS011;34033;48.672;9.376;2022-08-03T07:29:54;3.00;;;2.80;;
13311;SDS011;34033;48.672;9.376;2022-08-03T07:32:21;2.70;;;2.50;;
13311;SDS011;34033;48.672;9.376;2022-08-03T07:34:46;3.10;;;2.90;;
13311;SDS011;34033;48.672;9.376;2022-08-03T07:37:12;2.90;;;2.60;;
13311;SDS011;34033;48.672;9.376;2022-08-03T07:39:37;2.53;;;2.43;;
13311;SDS011;34033;48.672;9.376;2022-08-03T07:42:02;3.10;;;2.80;;
13311;SDS011;34033;48.672;9.376;2022-08-03T07:44:28;2.53;;;2.33;;
13311;SDS011;34033;48.672;9.376;2022-08-03T07:46:53;3.33;;;2.40;;
13311;SDS011;34033;48.672;9.376;2022-08-03T07:49:19;3.57;;;2.70;;
13311;SDS011;34033;48.672;9.376;2022-08-03T07:51:44;2.73;;;2.53;;
13311;SDS011;34033;48.672;9.376;2022-08-03T07:54:09;2.73;;;2.53;;
13311;SDS011;34033;48.672;9.376;2022-08-03T07:56:35;3.10;;;2.83;;
13311;SDS011;34033;48.672;9.376;2022-08-03T07:59:01;2.27;;;2.17;;
13311;SDS011;34033;48.672;9.376;2022-08-03T08:01:27;3.10;;;2.50;;
13311;SDS011;34033;48.672;9.376;2022-08-03T08:03:52;2.47;;;2.37;;
13311;SDS011;34033;48.672;9.376;2022-08-03T08:06:18;2.80;;;2.60;;
13311;SDS011;34033;48.672;9.376;2022-08-03T08:08:43;2.60;;;2.40;;
13311;SDS011;34033;48.672;9.376;2022-08-03T08:11:09;2.70;;;2.50;;
13311;SDS011;34033;48.672;9.376;2022-08-03T08:13:34;2.87;;;2.60;;
13311;SDS011;34033;48.672;9.376;2022-08-03T08:16:01;3.90;;;2.90;;
13311;SDS011;34033;48.672;9.376;2022-08-03T08:18:27;2.40;;;2.27;;
13311;SDS011;34033;48.672;9.376;2022-08-03T08:20:53;2.70;;;2.50;;
13311;SDS011;34033;48.672;9.376;2022-08-03T08:23:19;3.33;;;2.60;;
13311;SDS011;34033;48.672;9.376;2022-08-03T08:25:48;3.43;;;2.20;;
13311;SDS011;34033;48.672;9.376;2022-08-03T08:28:20;2.30;;;2.10;;
13311;SDS011;34033;48.672;9.376;2022-08-03T08:30:46;2.30;;;2.10;;
13311;SDS011;34033;48.672;9.376;2022-08-03T08:33:12;2.23;;;2.13;;
13311;SDS011;34033;48.672;9.376;2022-08-03T08:35:38;2.37;;;2.27;;
13311;SDS011;34033;48.672;9.376;2022-08-03T08:38:03;2.53;;;2.30;;
13311;SDS011;34033;48.672;9.376;2022-08-03T08:40:29;2.77;;;2.57;;
13311;SDS011;34033;48.672;9.376;2022-08-03T08:42:54;2.60;;;2.17;;
13311;SDS011;34033;48.672;9.376;2022-08-03T08:45:20;3.57;;;2.10;;
13311;SDS011;34033;48.672;9.376;2022-08-03T08:47:46;3.57;;;2.20;;
13311;SDS011;34033;48.672;9.376;2022-08-03T08:50:13;2.40;;;2.20;;
13311;SDS011;34033;48.672;9.376;2022-08-03T08:52:42;2.17;;;2.00;;
13311;SDS011;34033;48.672;9.376;2022-08-03T08:55:09;3.27;;;2.10;;
13311;SDS011;34033;48.672;9.376;2022-08-03T08:57:40;1.80;;;1.70;;
13311;SDS011;34033;48.672;9.376;2022-08-03T09:00:12;2.00;;;1.90;;
13311;SDS011;34033;48.672;9.376;2022-08-03T09:02:39;1.57;;;1.47;;
13311;SDS011;34033;48.672;9.376;2022-08-03T09:05:12;1.97;;;1.80;;
13311;SDS011;34033;48.672;9.376;2022-08-03T09:07:39;2.10;;;2.00;;
13311;SDS011;34033;48.672;9.376;2022-08-03T09:10:06;1.80;;;1.60;;
13311;SDS011;34033;48.672;9.376;2022-08-03T09:12:43;1.80;;;1.70;;
13311;SDS011;34033;48.672;9.376;2022-08-03T09:15:26;1.80;;;1.70;;
13311;SDS011;34033;48.672;9.376;2022-08-03T09:17:54;1.50;;;1.40;;
13311;SDS011;34033;48.672;9.376;2022-08-03T09:20:21;1.20;;;1.20;;
13311;SDS011;34033;48.672;9.376;2022-08-03T09:22:52;1.40;;;1.40;;
13311;SDS011;34033;48.672;9.376;2022-08-03T09:25:28;1.87;;;1.70;;
13311;SDS011;34033;48.672;9.376;2022-08-03T09:30:33;2.03;;;1.60;;
13311;SDS011;34033;48.672;9.376;2022-08-03T09:32:59;1.40;;;1.40;;
13311;SDS011;34033;48.672;9.376;2022-08-03T09:35:29;1.40;;;1.40;;
13311;SDS011;34033;48.672;9.376;2022-08-03T09:38:07;1.40;;;1.30;;
13311;SDS011;34033;48.672;9.376;2022-08-03T09:40:34;1.37;;;1.30;;
13311;SDS011;34033;48.672;9.376;2022-08-03T09:43:00;1.50;;;1.40;;
13311;SDS011;34033;48.672;9.376;2022-08-03T09:45:25;1.60;;;1.50;;
13311;SDS011;34033;48.672;9.376;2022-08-03T09:47:51;1.40;;;1.30;;
13311;SDS011;34033;48.672;9.376;2022-08-03T09:50:17;1.27;;;1.20;;
13311;SDS011;34033;48.672;9.376;2022-08-03T09:52:42;1.40;;;1.30;;
13311;SDS011;34033;48.672;9.376;2022-08-03T09:55:10;1.33;;;1.33;;
13311;SDS011;34033;48.672;9.376;2022-08-03T09:57:37;1.10;;;1.10;;
13311;SDS011;34033;48.672;9.376;2022-08-03T10:02:40;1.30;;;1.30;;
13311;SDS011;34033;48.672;9.376;2022-08-03T10:05:08;2.10;;;1.20;;
13311;SDS011;34033;48.672;9.376;2022-08-03T10:07:48;1.40;;;1.30;;
13311;SDS011;34033;48.672;9.376;2022-08-03T10:10:14;1.50;;;1.50;;
13311;SDS011;34033;48.672;9.376;2022-08-03T10:12:41;1.50;;;1.40;;
13311;SDS011;34033;48.672;9.376;2022-08-03T10:15:07;1.40;;;1.30;;
13311;SDS011;34033;48.672;9.376;2022-08-03T10:17:34;1.33;;;1.27;;
13311;SDS011;34033;48.672;9.376;2022-08-03T10:19:59;1.30;;;1.20;;
13311;SDS011;34033;48.672;9.376;2022-08-03T10:22:35;1.10;;;1.10;;
13311;SDS011;34033;48.672;9.376;2022-08-03T10:25:06;1.10;;;1.10;;
13311;SDS011;34033;48.672;9.376;2022-08-03T10:27:35;1.20;;;1.20;;
13311;SDS011;34033;48.672;9.376;2022-08-03T10:30:04;1.20;;;1.20;;
13311;SDS011;34033;48.672;9.376;2022-08-03T10:37:41;1.00;;;1.00;;
13311;SDS011;34033;48.672;9.376;2022-08-03T10:40:09;1.15;;;1.15;;
13311;SDS011;34033;48.672;9.376;2022-08-03T10:42:38;1.00;;;1.00;;
13311;SDS011;34033;48.672;9.376;2022-08-03T10:45:08;1.33;;;1.33;;
13311;SDS011;34033;48.672;9.376;2022-08-03T10:47:47;1.30;;;1.30;;
13311;SDS011;34033;48.672;9.376;2022-08-03T10:50:15;1.35;;;1.35;;
13311;SDS011;34033;48.672;9.376;2022-08-03T10:52:57;1.20;;;1.20;;
13311;SDS011;34033;48.672;9.376;2022-08-03T10:55:44;1.15;;;1.15;;
13311;SDS011;34033;48.672;9.376;2022-08-03T11:01:10;1.20;;;1.20;;
13311;SDS011;34033;48.672;9.376;2022-08-03T11:06:20;1.48;;;1.40;;
13311;SDS011;34033;48.672;9.376;2022-08-03T11:08:47;1.10;;;1.10;;
13311;SDS011;34033;48.672;9.376;2022-08-03T11:13:59;1.30;;;1.10;;
13311;SDS011;34033;48.672;9.376;2022-08-03T11:16:33;1.15;;;1.15;;
13311;SDS011;34033;48.672;9.376;2022-08-03T11:19:05;1.40;;;1.30;;
13311;SDS011;34033;48.672;9.376;2022-08-03T11:29:52;1.30;;;1.20;;
13311;SDS011;34033;48.672;9.376;2022-08-03T11:43:05;1.90;;;1.80;;
13311;SDS011;34033;48.672;9.376;2022-08-03T11:45:32;1.20;;;1.20;;
13311;SDS011;34033;48.672;9.376;2022-08-03T11:48:01;1.05;;;1.05;;
13311;SDS011;34033;48.672;9.376;2022-08-03T11:50:37;1.30;;;1.20;;
13311;SDS011;34033;48.672;9.376;2022-08-03T11:53:02;1.08;;;1.08;;
13311;SDS011;34033;48.672;9.376;2022-08-03T11:55:30;1.13;;;1.10;;
13311;SDS011;34033;48.672;9.376;2022-08-03T11:57:59;1.25;;;1.20;;
13311;SDS011;34033;48.672;9.376;2022-08-03T12:00:29;1.23;;;1.23;;
13311;SDS011;34033;48.672;9.376;2022-08-03T12:02:57;1.10;;;1.10;;
13311;SDS011;34033;48.672;9.376;2022-08-03T12:08:07;1.13;;;1.13;;
13311;SDS011;34033;48.672;9.376;2022-08-03T12:10:34;1.42;;;1.30;;
13311;SDS011;34033;48.672;9.376;2022-08-03T12:13:00;1.20;;;1.20;;
13311;SDS011;34033;48.672;9.376;2022-08-03T12:15:30;1.48;;;0.98;;
13311;SDS011;34033;48.672;9.376;2022-08-03T12:17:59;1.00;;;1.00;;
13311;SDS011;34033;48.672;9.376;2022-08-03T12:20:28;1.00;;;1.00;;
13311;SDS011;34033;48.672;9.376;2022-08-03T12:23:00;1.30;;;1.20;;
13311;SDS011;34033;48.672;9.376;2022-08-03T12:25:28;1.25;;;1.17;;
13311;SDS011;34033;48.672;9.376;2022-08-03T12:27:55;1.15;;;1.15;;
13311;SDS011;34033;48.672;9.376;2022-08-03T12:30:31;1.10;;;1.10;;
13311;SDS011;34033;48.672;9.376;2022-08-03T12:32:56;1.13;;;1.13;;
13311;SDS011;34033;48.672;9.376;2022-08-03T12:35:22;1.15;;;1.15;;
13311;SDS011;34033;48.672;9.376;2022-08-03T12:37:49;1.20;;;1.20;;
13311;SDS011;34033;48.672;9.376;2022-08-03T12:40:15;1.60;;;1.50;;
13311;SDS011;34033;48.672;9.376;2022-08-03T12:42:50;1.00;;;1.00;;
13311;SDS011;34033;48.672;9.376;2022-08-03T12:45:19;2.25;;;1.20;;
13311;SDS011;34033;48.672;9.376;2022-08-03T12:47:55;1.08;;;1.08;;
13311;SDS011;34033;48.672;9.376;2022-08-03T12:52:56;1.20;;;1.20;;
13311;SDS011;34033;48.672;9.376;2022-08-03T12:55:23;1.52;;;1.15;;
13311;SDS011;34033;48.672;9.376;2022-08-03T12:57:49;1.10;;;1.10;;
13311;SDS011;34033;48.672;9.376;2022-08-03T13:00:18;1.02;;;1.02;;
13311;SDS011;34033;48.672;9.376;2022-08-03T13:02:44;1.20;;;1.20;;
13311;SDS011;34033;48.672;9.376;2022-08-03T13:05:10;1.30;;;1.30;;
13311;SDS011;34033;48.672;9.376;2022-08-03T13:07:40;1.00;;;1.00;;
13311;SDS011;34033;48.672;9.376;2022-08-03T13:10:07;1.20;;;1.20;;
13311;SDS011;34033;48.672;9.376;2022-08-03T13:12:44;2.08;;;1.20;;
13311;SDS011;34033;48.672;9.376;2022-08-03T13:15:11;1.10;;;1.10;;
13311;SDS011;34033;48.672;9.376;2022-08-03T13:17:37;1.40;;;1.30;;
13311;SDS011;34033;48.672;9.376;2022-08-03T13:20:02;1.40;;;1.40;;
13311;SDS011;34033;48.672;9.376;2022-08-03T13:22:28;1.23;;;1.23;;
13311;SDS011;34033;48.672;9.376;2022-08-03T13:24:54;1.35;;;1.25;;
13311;SDS011;34033;48.672;9.376;2022-08-03T13:27:21;1.23;;;1.17;;
13311;SDS011;34033;48.672;9.376;2022-08-03T13:29:48;1.10;;;1.10;;
13311;SDS011;34033;48.672;9.376;2022-08-03T13:32:14;1.10;;;1.10;;
13311;SDS011;34033;48.672;9.376;2022-08-03T13:34:39;1.00;;;1.00;;
13311;SDS011;34033;48.672;9.376;2022-08-03T13:37:04;1.02;;;1.02;;
13311;SDS011;34033;48.672;9.376;2022-08-03T13:39:30;1.85;;;1.10;;
13311;SDS011;34033;48.672;9.376;2022-08-03T13:41:55;1.25;;;1.02;;
13311;SDS011;34033;48.672;9.376;2022-08-03T13:44:21;1.20;;;1.10;;
13311;SDS011;34033;48.672;9.376;2022-08-03T13:46:46;1.20;;;1.20;;
13311;SDS011;34033;48.672;9.376;2022-08-03T13:49:12;1.30;;;1.20;;
13311;SDS011;34033;48.672;9.376;2022-08-03T13:51:38;1.02;;;1.02;;
13311;SDS011;34033;48.672;9.376;2022-08-03T13:54:03;1.40;;;1.30;;
13311;SDS011;34033;48.672;9.376;2022-08-03T13:56:29;1.30;;;1.30;;
13311;SDS011;34033;48.672;9.376;2022-08-03T13:58:56;1.10;;;1.10;;
13311;SDS011;34033;48.672;9.376;2022-08-03T14:01:22;1.85;;;1.10;;
13311;SDS011;34033;48.672;9.376;2022-08-03T14:03:51;1.38;;;1.20;;
13311;SDS011;34033;48.672;9.376;2022-08-03T14:06:18;1.00;;;1.00;;
13311;SDS011;34033;48.672;9.376;2022-08-03T14:08:47;1.02;;;1.02;;
13311;SDS011;34033;48.672;9.376;2022-08-03T14:11:14;1.17;;;1.17;;
13311;SDS011;34033;48.672;9.376;2022-08-03T14:13:40;1.10;;;1.10;;
13311;SDS011;34033;48.672;9.376;2022-08-03T14:16:05;1.30;;;1.30;;
13311;SDS011;34033;48.672;9.376;2022-08-03T14:18:31;1.27;;;1.27;;
13311;SDS011;34033;48.672;9.376;2022-08-03T14:20:56;1.30;;;1.25;;
13311;SDS011;34033;48.672;9.376;2022-08-03T14:23:23;1.27;;;1.27;;
13311;SDS011;34033;48.672;9.376;2022-08-03T14:25:48;2.05;;;1.20;;
13311;SDS011;34033;48.672;9.376;2022-08-03T14:28:13;1.00;;;1.00;;
13311;SDS011;34033;48.672;9.376;2022-08-03T14:30:39;1.13;;;1.08;;
13311;SDS011;34033;48.672;9.376;2022-08-03T14:33:04;1.33;;;1.23;;
13311;SDS011;34033;48.672;9.376;2022-08-03T14:35:29;1.42;;;1.00;;
13311;SDS011;34033;48.672;9.376;2022-08-03T14:37:55;1.10;;;1.10;;
13311;SDS011;34033;48.672;9.376;2022-08-03T14:40:20;1.10;;;1.10;;
13311;SDS011;34033;48.672;9.376;2022-08-03T14:42:46;1.00;;;1.00;;
13311;SDS011;34033;48.672;9.376;2022-08-03T14:45:11;1.38;;;1.38;;
13311;SDS011;34033;48.672;9.376;2022-08-03T14:47:37;1.00;;;1.00;;
13311;SDS011;34033;48.672;9.376;2022-08-03T14:50:04;0.90;;;0.90;;
13311;SDS011;34033;48.672;9.376;2022-08-03T14:52:30;1.20;;;1.10;;
13311;SDS011;34033;48.672;9.376;2022-08-03T14:54:56;1.08;;;1.08;;
13311;SDS011;34033;48.672;9.376;2022-08-03T14:57:22;1.00;;;1.00;;
13311;SDS011;34033;48.672;9.376;2022-08-03T14:59:48;1.08;;;1.08;;
13311;SDS011;34033;48.672;9.376;2022-08-03T15:02:13;1.00;;;1.00;;
13311;SDS011;34033;48.672;9.376;2022-08-03T15:04:38;1.35;;;1.27;;
13311;SDS011;34033;48.672;9.376;2022-08-03T15:07:04;1.00;;;1.00;;
13311;SDS011;34033;48.672;9.376;2022-08-03T15:09:37;1.10;;;1.10;;
13311;SDS011;34033;48.672;9.376;2022-08-03T15:15:19;1.00;;;1.00;;
13311;SDS011;34033;48.672;9.376;2022-08-03T15:17:45;1.20;;;1.20;;
13311;SDS011;34033;48.672;9.376;2022-08-03T15:20:10;1.00;;;1.00;;
13311;SDS011;34033;48.672;9.376;2022-08-03T15:22:38;1.20;;;1.20;;
13311;SDS011;34033;48.672;9.376;2022-08-03T15:25:04;1.00;;;1.00;;
13311;SDS011;34033;48.672;9.376;2022-08-03T15:27:29;1.08;;;1.08;;
13311;SDS011;34033;48.672;9.376;2022-08-03T15:29:55;1.00;;;1.00;;
13311;SDS011;34033;48.672;9.376;2022-08-03T15:32:20;1.00;;;1.00;;
13311;SDS011;34033;48.672;9.376;2022-08-03T15:34:46;1.00;;;1.00;;
13311;SDS011;34033;48.672;9.376;2022-08-03T15:37:11;1.00;;;1.00;;
13311;SDS011;34033;48.672;9.376;2022-08-03T15:39:37;1.00;;;1.00;;
13311;SDS011;34033;48.672;9.376;2022-08-03T15:42:02;1.02;;;1.02;;
13311;SDS011;34033;48.672;9.376;2022-08-03T15:44:28;0.95;;;0.95;;
13311;SDS011;34033;48.672;9.376;2022-08-03T15:46:53;1.10;;;1.10;;